Terminal Aerodrome Forecast
Issued by NWS Charleston, WV

Current Version | Previous Version | Graphics & Text | Print | Product List | Glossary On
Versions: 1 2 3 4 5 6 7 8 9 10 11 12 13 14 15 16 17 18 19 20 21 22 23
000
FTUS41 KRLX 270552
TAFCRW
TAF
KCRW 270552Z 2706/2806 19004KT 4SM SHRA BR BKN015 BKN025
      TEMPO 2706/2709 6SM -SHRA BR BKN035
     FM270900 22005KT 6SM BR BKN050
      TEMPO 2709/2712 3SM BR BKN025
     FM271200 21004KT P6SM BKN025
     FM271700 23007KT P6SM SCT040
     FM280100 VRB03KT P6SM SCT050=

USA.gov is the U.S. government's official web portal to all federal, state and local government web resources and services.